Durant, OK (74701)

8:58 PM CDT on August 23, 2016 (GMT -0500)
Ridgemont Estate | | Change Station

Elev 689 ft 34.02 °N, 96.40 °W | Updated 30 seconds ago

Clear
Clear
84.0 °F
Feels Like 88 °F
N
4.7
Wind Variable Wind from SSW

Today
High -- | Low -- °F
--% Chance of Precip.
Yesterday
High -- | Low -- °F
Precip. -- in
Pressure 30.06 in
Visibility 10.0 miles
Clouds Clear
Heat Index 88 °F
Dew Point 70 °F
Humidity 62%
Rainfall 0.00 in
Snow Depth Not available.
6:53 AM 8:02 PM
Waning Gibbous, 62% visible
METAR KDUA 240155Z AUTO 17008KT 10SM CLR 28/21 A3006 RMK AO2
Pressure 30.06 in
Visibility 10.0 miles
Clouds Clear
Heat Index 88 °F
Dew Point 70 °F
Humidity 62%
Rainfall 0.00 in
Snow Depth Not available.
6:53 AM 8:02 PM
Waning Gibbous, 62% visible
METAR KDUA 240155Z AUTO 17008KT 10SM CLR 28/21 A3006 RMK AO2

10-Day Weather Forecast

Almanac

Astronomy

Aug. 23, 2016 Rise Set
Actual Time
Civil Twilight
Nautical Twilight
Astronomical Twilight
Moon
Length of Visible Light
Length of Day
Tomorrow will be .
, % of the Moon is Illuminated

Today's Extremes

State Highs State Lows

Community

WunderPhotos

Upload Photos

1,934,520 photos uploaded!

WunderBlog® & News

Nearby

Air Quality

  Air Quality AQ Index Pollutant
Not available.

Snow Depth

Station Depth Elevation

Earthquake Activity

City Distance Mag. Time & Date
Minimum magnitude displayed is 2.5.

Coastal Water Temperatures

Place Temperature

Stations

Nearby Weather Stations

Station Location Temp. Windchill Dew Point Humidity Wind Precip. Elev Updated Type
                   

Watches & Warnings

There are currently no watches in effect.